createdAt,value
2018-02-07T00:02:21.175Z,49.97
2018-02-07T00:04:47.791Z,49.22
2018-02-07T00:07:14.437Z,50.75
2018-02-07T00:09:40.828Z,49.65
2018-02-07T00:12:07.199Z,42.62
2018-02-07T00:14:33.645Z,47.33
2018-02-07T00:17:00.055Z,48.75
2018-02-07T00:19:26.441Z,49.75
2018-02-07T00:21:53.568Z,42.70
2018-02-07T00:24:19.982Z,43.40
2018-02-07T00:26:46.460Z,58.15
2018-02-07T00:29:13.865Z,45.30
2018-02-07T00:31:40.230Z,50.53
2018-02-07T00:34:06.632Z,54.58
2018-02-07T00:36:33.062Z,66.28
2018-02-07T00:38:59.599Z,70.40
2018-02-07T00:41:26.676Z,72.57
2018-02-07T00:43:53.033Z,62.15
2018-02-07T00:46:20.139Z,70.40
2018-02-07T00:48:46.527Z,70.68
2018-02-07T00:51:13.899Z,70.37
2018-02-07T00:53:40.470Z,78.55
2018-02-07T00:56:08.110Z,72.85
2018-02-07T00:58:34.749Z,76.85
2018-02-07T01:01:01.284Z,59.63
2018-02-07T01:03:27.921Z,68.60
2018-02-07T01:05:55.339Z,70.60
2018-02-07T01:08:23.438Z,68.47
2018-02-07T01:10:49.815Z,69.65
2018-02-07T01:13:17.169Z,68.35
2018-02-07T01:15:43.555Z,62.80
2018-02-07T01:18:10.207Z,56.50
2018-02-07T01:20:36.582Z,60.65
2018-02-07T01:23:03.893Z,64.10
2018-02-07T01:25:30.533Z,65.35
2018-02-07T01:27:57.170Z,64.97
2018-02-07T01:30:23.705Z,57.45
2018-02-07T01:32:50.239Z,59.20
2018-02-07T01:35:16.606Z,58.72
2018-02-07T01:37:44.129Z,60.85
2018-02-07T01:40:10.768Z,58.28
2018-02-07T01:42:37.406Z,59.50
2018-02-07T01:45:03.839Z,55.00
2018-02-07T01:47:30.204Z,57.88
2018-02-07T01:49:56.568Z,57.35
2018-02-07T01:52:23.754Z,57.85
2018-02-07T01:54:50.142Z,59.50
2018-02-07T01:57:17.287Z,66.07
2018-02-07T01:59:44.590Z,69.93
2018-02-07T02:02:11.125Z,61.10
2018-02-07T02:04:38.474Z,70.57
2018-02-07T02:07:04.886Z,70.80
2018-02-07T02:09:31.450Z,60.83
2018-02-07T02:11:57.863Z,59.20
2018-02-07T02:14:25.189Z,68.20
2018-02-07T02:16:52.316Z,81.65
2018-02-07T02:19:18.923Z,57.62
2018-02-07T02:21:45.340Z,60.60
2018-02-07T02:24:11.968Z,55.70
2018-02-07T02:26:38.994Z,72.25
2018-02-07T02:29:06.051Z,55.30
2018-02-07T02:31:33.099Z,71.07
2018-02-07T02:34:00.120Z,50.47
2018-02-07T02:36:40.102Z,61.40
2018-02-07T02:39:07.143Z,60.25
2018-02-07T02:41:34.191Z,57.38
2018-02-07T02:44:01.215Z,66.00
2018-02-07T02:46:27.567Z,65.25
2018-02-07T02:48:54.594Z,72.25
2018-02-07T02:51:20.884Z,57.03
2018-02-07T02:53:47.191Z,69.90
2018-02-07T02:56:13.479Z,59.75
2018-02-07T02:58:39.758Z,61.17
2018-02-07T03:01:06.042Z,57.97
2018-02-07T03:03:32.377Z,61.33
2018-02-07T03:05:59.455Z,74.53
2018-02-07T03:08:26.469Z,58.22
2018-02-07T03:10:52.742Z,57.58
2018-02-07T03:13:19.074Z,66.55
2018-02-07T03:15:45.346Z,62.22
2018-02-07T03:18:11.684Z,67.68
2018-02-07T03:20:38.011Z,62.65
2018-02-07T03:23:04.286Z,74.87
2018-02-07T03:25:31.326Z,72.72
2018-02-07T03:27:58.346Z,72.85
2018-02-07T03:30:25.402Z,70.00
2018-02-07T03:32:51.680Z,65.05
2018-02-07T03:35:17.985Z,64.78
2018-02-07T03:37:45.015Z,76.53
2018-02-07T03:40:12.027Z,64.60
2018-02-07T03:42:38.335Z,62.75
2018-02-07T03:45:04.615Z,63.45
2018-02-07T03:47:32.379Z,63.40
2018-02-07T03:49:58.714Z,65.12
2018-02-07T03:52:24.998Z,62.85
2018-02-07T03:54:51.318Z,71.03
2018-02-07T03:57:17.602Z,70.90
2018-02-07T03:59:43.882Z,67.62
2018-02-07T04:02:10.166Z,60.65
2018-02-07T04:04:37.192Z,63.78
2018-02-07T04:07:03.534Z,66.10
2018-02-07T04:09:29.811Z,72.57
2018-02-07T04:11:56.119Z,66.50
2018-02-07T04:14:23.169Z,60.90
2018-02-07T04:16:50.196Z,63.08
2018-02-07T04:19:17.242Z,65.15
2018-02-07T04:21:43.521Z,68.62
2018-02-07T04:24:09.803Z,69.53
2018-02-07T04:26:36.814Z,56.92
2018-02-07T04:29:03.099Z,71.78
2018-02-07T04:31:30.169Z,70.25
2018-02-07T04:33:57.486Z,70.95
2018-02-07T04:36:24.517Z,69.60
2018-02-07T04:38:50.816Z,74.70
2018-02-07T04:41:17.102Z,76.25
2018-02-07T04:43:44.185Z,73.22
2018-02-07T04:46:10.459Z,69.90
2018-02-07T04:48:36.775Z,103.68
2018-02-07T04:51:03.044Z,70.65
2018-02-07T04:53:30.071Z,69.20
2018-02-07T04:55:56.372Z,81.57
2018-02-07T04:58:22.733Z,63.03
2018-02-07T05:00:49.004Z,76.55
2018-02-07T05:03:15.286Z,66.62
2018-02-07T05:05:41.582Z,55.33
2018-02-07T05:08:07.870Z,72.60
2018-02-07T05:10:35.892Z,74.03
2018-02-07T05:13:02.212Z,64.85
2018-02-07T05:15:28.497Z,67.05
2018-02-07T05:17:55.522Z,64.75
2018-02-07T05:20:21.818Z,75.65
2018-02-07T05:22:48.087Z,70.05
2018-02-07T05:25:14.368Z,72.10
2018-02-07T05:27:40.648Z,73.12
2018-02-07T05:30:06.935Z,65.47
2018-02-07T05:32:33.256Z,61.65
2018-02-07T05:34:59.528Z,63.30
2018-02-07T05:37:25.811Z,73.65
2018-02-07T05:39:52.082Z,72.40
2018-02-07T05:42:18.362Z,65.28
2018-02-07T05:44:44.651Z,65.97
2018-02-07T05:47:10.918Z,66.43
2018-02-07T05:49:37.226Z,59.40
2018-02-07T05:52:04.243Z,64.10
2018-02-07T05:54:30.527Z,62.20
2018-02-07T05:56:56.826Z,61.37
2018-02-07T05:59:23.842Z,57.95
2018-02-07T06:01:50.138Z,56.92
2018-02-07T06:04:16.436Z,67.05
2018-02-07T06:06:43.451Z,65.37
2018-02-07T06:09:10.369Z,66.43
2018-02-07T06:11:38.015Z,70.85
2018-02-07T06:14:04.299Z,70.55
2018-02-07T06:16:30.576Z,69.57
2018-02-07T06:18:56.866Z,67.80
2018-02-07T06:21:23.163Z,65.03
2018-02-07T06:23:49.476Z,62.58
2018-02-07T06:26:16.791Z,68.75
2018-02-07T06:28:43.804Z,67.53
2018-02-07T06:31:10.097Z,63.90
2018-02-07T06:33:36.409Z,64.62
2018-02-07T06:36:03.471Z,64.47
2018-02-07T06:38:29.742Z,58.42
2018-02-07T06:40:56.010Z,66.57
2018-02-07T06:43:23.031Z,57.62
2018-02-07T06:45:49.306Z,64.30
2018-02-07T06:48:15.627Z,60.03
2018-02-07T06:50:41.907Z,62.28
2018-02-07T06:53:08.197Z,63.17
2018-02-07T06:55:34.513Z,59.97
2018-02-07T06:58:01.539Z,67.87
2018-02-07T07:00:27.827Z,72.22
2018-02-07T07:02:54.124Z,64.47
2018-02-07T07:05:20.403Z,63.33
2018-02-07T07:07:46.678Z,61.83
2018-02-07T07:10:13.702Z,62.83
2018-02-07T07:12:39.991Z,59.40
2018-02-07T07:15:06.311Z,58.08
2018-02-07T07:17:32.599Z,66.47
2018-02-07T07:19:58.891Z,63.13
2018-02-07T07:22:25.182Z,61.67
2018-02-07T07:24:52.198Z,72.53
2018-02-07T07:27:18.494Z,69.15
2018-02-07T07:29:44.770Z,69.87
2018-02-07T07:32:11.860Z,67.18
2018-02-07T07:34:38.119Z,68.78
2018-02-07T07:37:04.403Z,76.15
2018-02-07T07:39:31.704Z,82.10
2018-02-07T07:41:57.986Z,82.35
2018-02-07T07:44:24.276Z,62.97
2018-02-07T07:46:50.566Z,57.97
2018-02-07T07:49:16.853Z,66.18
2018-02-07T07:51:44.931Z,66.32
2018-02-07T07:54:11.966Z,62.60
2018-02-07T07:56:38.992Z,68.30
2018-02-07T07:59:05.279Z,68.20
2018-02-07T08:01:31.558Z,58.72
2018-02-07T08:03:57.863Z,55.15
2018-02-07T08:06:24.134Z,59.38
2018-02-07T08:08:51.164Z,58.67
2018-02-07T08:11:17.442Z,59.60
2018-02-07T08:13:43.710Z,60.28
2018-02-07T08:16:10.009Z,63.35
2018-02-07T08:18:36.279Z,64.78
2018-02-07T08:21:02.576Z,69.80
2018-02-07T08:23:28.854Z,66.25
2018-02-07T08:25:55.155Z,66.47
2018-02-07T08:28:21.458Z,67.60
2018-02-07T08:30:47.729Z,70.72
2018-02-07T08:33:14.007Z,69.93
2018-02-07T08:35:42.043Z,71.78
2018-02-07T08:38:08.314Z,60.58
2018-02-07T08:40:35.358Z,71.45
2018-02-07T08:43:01.679Z,57.15
2018-02-07T08:45:27.938Z,66.45
2018-02-07T08:47:54.951Z,75.57
2018-02-07T08:50:21.242Z,69.43
2018-02-07T08:52:47.534Z,65.47
2018-02-07T08:55:14.562Z,61.42
2018-02-07T08:57:40.849Z,72.62
2018-02-07T09:00:07.155Z,71.97
2018-02-07T09:02:34.170Z,60.45
2018-02-07T09:05:00.466Z,66.00
2018-02-07T09:07:26.754Z,66.93
2018-02-07T09:09:53.787Z,52.97
2018-02-07T09:12:20.834Z,56.20
2018-02-07T09:14:47.851Z,62.05
2018-02-07T09:17:14.191Z,70.53
2018-02-07T09:19:40.462Z,62.78
2018-02-07T09:22:07.486Z,64.72
2018-02-07T09:24:33.771Z,61.25
2018-02-07T09:27:00.107Z,76.80
2018-02-07T09:29:26.403Z,58.17
2018-02-07T09:31:52.683Z,61.85
2018-02-07T09:34:18.962Z,73.37
2018-02-07T09:36:45.983Z,64.80
2018-02-07T09:39:12.262Z,68.47
2018-02-07T09:41:38.563Z,66.30
2018-02-07T09:44:05.606Z,86.82
2018-02-07T09:46:32.622Z,68.22
2018-02-07T09:48:58.906Z,63.33
2018-02-07T09:51:25.191Z,68.62
2018-02-07T09:53:51.504Z,74.22
2018-02-07T09:56:17.782Z,69.40
2018-02-07T09:58:44.062Z,73.90
2018-02-07T10:01:10.338Z,70.37
2018-02-07T10:03:37.370Z,60.03
2018-02-07T10:06:04.406Z,63.15
2018-02-07T10:08:30.719Z,67.72
2018-02-07T10:10:57.110Z,65.55
2018-02-07T10:13:23.399Z,65.10
2018-02-07T10:15:49.678Z,63.22
2018-02-07T10:18:16.019Z,67.32
2018-02-07T10:20:42.299Z,82.45
2018-02-07T10:23:09.318Z,77.57
2018-02-07T10:25:35.600Z,56.22
2018-02-07T10:28:01.875Z,63.85
2018-02-07T10:30:28.178Z,68.85
2018-02-07T10:32:54.486Z,69.95
2018-02-07T10:35:20.762Z,64.80
2018-02-07T10:37:47.035Z,71.80
2018-02-07T10:40:14.059Z,69.50
2018-02-07T10:42:40.354Z,77.90
2018-02-07T10:45:06.635Z,76.53
2018-02-07T10:47:34.900Z,82.15
2018-02-07T10:50:01.173Z,81.35
2018-02-07T10:52:27.447Z,81.22
2018-02-07T10:54:53.746Z,81.75
2018-02-07T10:57:20.023Z,75.47
2018-02-07T10:59:47.053Z,86.10
2018-02-07T11:02:14.350Z,81.22
2018-02-07T11:04:41.643Z,83.85
2018-02-07T11:07:07.990Z,78.78
2018-02-07T11:09:34.300Z,93.28
2018-02-07T11:12:00.587Z,85.75
2018-02-07T11:14:27.602Z,86.60
2018-02-07T11:16:53.874Z,86.22
2018-02-07T11:19:20.173Z,87.03
2018-02-07T11:21:46.447Z,83.45
2018-02-07T11:24:12.723Z,101.25
2018-02-07T11:26:39.027Z,90.78
2018-02-07T11:29:05.344Z,87.60
2018-02-07T11:31:31.637Z,83.05
2018-02-07T11:33:58.670Z,87.47
2018-02-07T11:36:25.022Z,78.62
2018-02-07T11:38:51.304Z,80.43
2018-02-07T11:41:17.579Z,79.50
2018-02-07T11:43:44.615Z,91.60
2018-02-07T11:46:12.242Z,92.32
2018-02-07T11:48:38.514Z,100.87
2018-02-07T11:51:05.911Z,96.47
2018-02-07T11:53:32.198Z,89.80
2018-02-07T11:55:59.253Z,96.40
2018-02-07T11:58:25.535Z,87.97
2018-02-07T12:00:51.822Z,99.95
2018-02-07T12:03:18.099Z,80.97
2018-02-07T12:05:44.378Z,91.93
2018-02-07T12:08:11.726Z,74.90
2018-02-07T12:10:38.007Z,91.75
2018-02-07T12:13:04.282Z,73.05
2018-02-07T12:15:31.294Z,93.35
2018-02-07T12:17:57.584Z,74.57
2018-02-07T12:20:23.886Z,84.50
2018-02-07T12:22:50.902Z,79.62
2018-02-07T12:25:17.205Z,89.35
2018-02-07T12:27:43.479Z,75.32
2018-02-07T12:30:10.506Z,88.15
2018-02-07T12:32:36.787Z,84.53
2018-02-07T12:35:03.091Z,78.95
2018-02-07T12:37:30.124Z,67.65
2018-02-07T12:39:56.427Z,81.60
2018-02-07T12:42:22.731Z,72.65
2018-02-07T12:44:49.013Z,68.30
2018-02-07T12:47:15.302Z,81.03
2018-02-07T12:49:42.716Z,68.10
2018-02-07T12:52:09.038Z,82.43
2018-02-07T12:54:35.546Z,75.28
2018-02-07T12:57:02.067Z,70.60
2018-02-07T12:59:28.406Z,86.18
2018-02-07T13:01:55.438Z,74.22
2018-02-07T13:04:22.450Z,82.20
2018-02-07T13:06:48.783Z,69.32
2018-02-07T13:09:16.878Z,81.53
2018-02-07T13:11:44.179Z,82.10
2018-02-07T13:14:11.752Z,92.30
2018-02-07T13:16:38.034Z,78.95
2018-02-07T13:19:05.039Z,78.70
2018-02-07T13:21:31.318Z,83.00
2018-02-07T13:23:58.338Z,77.82
2018-02-07T13:26:24.639Z,84.53
2018-02-07T13:28:51.930Z,70.28
2018-02-07T13:31:18.230Z,73.95
2018-02-07T13:33:44.511Z,91.78
2018-02-07T13:36:11.534Z,87.32
2018-02-07T13:38:38.608Z,70.85
2018-02-07T13:41:05.626Z,82.43
2018-02-07T13:43:32.959Z,84.05
2018-02-07T13:45:59.242Z,80.72
2018-02-07T13:48:25.563Z,75.47
2018-02-07T13:50:52.627Z,79.90
2018-02-07T13:53:18.914Z,101.70
2018-02-07T13:55:47.742Z,89.35
2018-02-07T13:58:15.146Z,87.55
2018-02-07T14:00:47.718Z,82.82
2018-02-07T14:03:14.065Z,78.20
2018-02-07T14:05:40.349Z,89.72
2018-02-07T14:08:06.621Z,86.28
2018-02-07T14:10:32.899Z,91.45
2018-02-07T14:12:59.944Z,84.62
2018-02-07T14:15:26.954Z,75.47
2018-02-07T14:17:53.248Z,73.55
2018-02-07T14:20:19.527Z,92.20
2018-02-07T14:22:45.860Z,92.82
2018-02-07T14:25:12.908Z,96.63
2018-02-07T14:27:40.203Z,80.55
2018-02-07T14:30:06.479Z,77.60
2018-02-07T14:32:32.790Z,82.45
2018-02-07T14:34:59.069Z,83.60
2018-02-07T14:37:26.115Z,80.53
2018-02-07T14:39:53.155Z,90.07
2018-02-07T14:42:20.175Z,81.82
2018-02-07T14:44:46.457Z,81.22
2018-02-07T14:47:12.786Z,73.40
2018-02-07T14:49:39.090Z,74.03
2018-02-07T14:52:06.102Z,68.12
2018-02-07T14:54:32.374Z,66.50
2018-02-07T14:56:59.407Z,63.22
2018-02-07T14:59:26.449Z,71.78
2018-02-07T15:01:52.747Z,68.28
2018-02-07T15:04:19.019Z,70.97
2018-02-07T15:06:46.031Z,63.58
2018-02-07T15:09:12.318Z,64.57
2018-02-07T15:11:38.608Z,67.55
2018-02-07T15:14:05.644Z,63.85
2018-02-07T15:16:31.935Z,56.70
2018-02-07T15:18:58.225Z,60.05
2018-02-07T15:21:27.030Z,65.70
2018-02-07T15:23:54.059Z,53.35
2018-02-07T15:26:20.702Z,52.15
2018-02-07T15:28:47.730Z,65.43
2018-02-07T15:31:14.016Z,56.45
2018-02-07T15:33:40.328Z,61.65
2018-02-07T15:36:07.346Z,64.72
2018-02-07T15:38:33.761Z,55.65
2018-02-07T15:41:00.052Z,58.47
2018-02-07T15:43:26.374Z,57.28
2018-02-07T15:45:52.680Z,70.70
2018-02-07T15:48:18.955Z,57.08
2018-02-07T15:50:45.266Z,65.28
2018-02-07T15:53:11.699Z,63.13
2018-02-07T15:55:38.003Z,57.50
2018-02-07T15:58:05.039Z,66.90
2018-02-07T16:00:31.342Z,59.38
2018-02-07T16:02:57.660Z,61.05
2018-02-07T16:05:23.938Z,64.47
2018-02-07T16:07:51.444Z,56.63
2018-02-07T16:10:17.781Z,62.72
2018-02-07T16:12:44.071Z,61.95
2018-02-07T16:15:11.117Z,63.20
2018-02-07T16:17:38.122Z,58.33
2018-02-07T16:20:06.068Z,51.05
2018-02-07T16:22:32.397Z,72.70
2018-02-07T16:24:58.718Z,64.03
2018-02-07T16:27:25.021Z,61.60
2018-02-07T16:29:52.050Z,58.45
2018-02-07T16:32:18.382Z,52.97
2018-02-07T16:34:44.671Z,54.25
2018-02-07T16:37:10.950Z,60.72
2018-02-07T16:39:37.996Z,65.10
2018-02-07T16:42:04.322Z,53.53
2018-02-07T16:44:30.660Z,52.70
2018-02-07T16:46:57.070Z,63.45
2018-02-07T16:49:23.364Z,53.20
2018-02-07T16:51:49.698Z,64.07
2018-02-07T16:54:16.018Z,59.20
2018-02-07T16:56:42.324Z,55.55
2018-02-07T16:59:08.634Z,59.30
2018-02-07T17:01:35.023Z,54.75
2018-02-07T17:04:01.359Z,57.20
2018-02-07T17:06:27.687Z,61.75
2018-02-07T17:08:53.976Z,53.65
2018-02-07T17:11:21.020Z,68.20
2018-02-07T17:13:48.071Z,53.10
2018-02-07T17:16:15.136Z,51.78
2018-02-07T17:18:41.442Z,51.53
2018-02-07T17:21:08.517Z,53.87
2018-02-07T17:23:34.843Z,51.50
2018-02-07T17:26:01.915Z,55.38
2018-02-07T17:28:28.230Z,64.18
2018-02-07T17:30:54.547Z,59.20
2018-02-07T17:33:21.654Z,53.50
2018-02-07T17:35:48.001Z,60.63
2018-02-07T17:38:14.322Z,48.87
2018-02-07T17:40:40.663Z,65.60
2018-02-07T17:43:08.115Z,57.55
2018-02-07T17:45:34.437Z,58.78
2018-02-07T17:48:00.779Z,56.80
2018-02-07T17:50:27.076Z,62.58
2018-02-07T17:52:53.398Z,56.45
2018-02-07T17:55:19.715Z,67.97
2018-02-07T17:57:46.002Z,57.20
2018-02-07T18:00:13.217Z,58.35
2018-02-07T18:02:39.501Z,60.55
2018-02-07T18:05:06.546Z,70.18
2018-02-07T18:07:33.583Z,62.42
2018-02-07T18:09:59.863Z,67.60
2018-02-07T18:12:26.150Z,50.60
2018-02-07T18:14:53.173Z,61.05
2018-02-07T18:17:19.474Z,61.63
2018-02-07T18:19:45.758Z,60.33
2018-02-07T18:22:13.678Z,59.40
2018-02-07T18:24:40.202Z,58.67
2018-02-07T18:27:06.634Z,76.20
2018-02-07T18:29:33.011Z,73.05
2018-02-07T18:31:59.294Z,76.47
2018-02-07T18:34:26.666Z,73.43
2018-02-07T18:36:53.013Z,69.05
2018-02-07T18:39:20.114Z,63.00
2018-02-07T18:41:47.483Z,68.57
2018-02-07T18:44:13.874Z,56.67
2018-02-07T18:46:40.179Z,59.67
2018-02-07T18:49:06.498Z,66.53
2018-02-07T18:51:32.787Z,60.95
2018-02-07T18:53:59.095Z,61.28
2018-02-07T18:56:26.126Z,65.10
2018-02-07T18:58:52.431Z,59.17
2018-02-07T19:01:18.741Z,64.72
2018-02-07T19:03:45.026Z,53.22
2018-02-07T19:06:11.321Z,53.65
2018-02-07T19:08:37.670Z,57.95
2018-02-07T19:11:04.583Z,63.90
2018-02-07T19:13:31.648Z,73.80
2018-02-07T19:15:58.004Z,92.75
2018-02-07T19:18:24.512Z,68.30
2018-02-07T19:20:51.666Z,103.20
2018-02-07T19:23:17.994Z,68.47
2018-02-07T19:25:44.302Z,64.43
2018-02-07T19:28:10.758Z,59.20
2018-02-07T19:30:37.115Z,58.92
2018-02-07T19:33:03.602Z,66.12
2018-02-07T19:35:29.895Z,59.08
2018-02-07T19:37:56.928Z,65.68
2018-02-07T19:40:23.467Z,58.95
2018-02-07T19:42:49.803Z,56.72
2018-02-07T19:45:16.087Z,58.05
2018-02-07T19:47:42.379Z,60.95
2018-02-07T19:50:09.410Z,56.97
2018-02-07T19:52:35.738Z,67.30
2018-02-07T19:55:02.028Z,62.17
2018-02-07T19:57:28.318Z,59.22
2018-02-07T19:59:55.338Z,57.33
2018-02-07T20:02:21.623Z,71.30
2018-02-07T20:04:47.983Z,59.28
2018-02-07T20:07:14.400Z,57.47
2018-02-07T20:09:40.706Z,67.25
2018-02-07T20:12:06.994Z,60.55
2018-02-07T20:14:33.286Z,56.72
2018-02-07T20:16:59.672Z,67.87
2018-02-07T20:19:26.694Z,65.53
2018-02-07T20:21:52.984Z,63.22
2018-02-07T20:24:19.259Z,56.08
2018-02-07T20:26:45.567Z,50.42
2018-02-07T20:29:11.862Z,59.13
2018-02-07T20:31:38.166Z,57.47
2018-02-07T20:34:05.205Z,58.97
2018-02-07T20:36:32.234Z,69.72
2018-02-07T20:38:58.536Z,63.65
2018-02-07T20:41:25.342Z,64.78
2018-02-07T20:43:52.362Z,70.70
2018-02-07T20:46:18.650Z,59.85
2018-02-07T20:48:44.967Z,68.05
2018-02-07T20:51:11.251Z,59.45
2018-02-07T20:53:37.566Z,62.30
2018-02-07T20:56:03.846Z,67.62
2018-02-07T20:58:31.879Z,57.47
2018-02-07T21:00:58.198Z,59.58
2018-02-07T21:03:24.503Z,55.03
2018-02-07T21:05:50.806Z,64.90
2018-02-07T21:08:17.847Z,62.03
2018-02-07T21:10:44.931Z,66.68
2018-02-07T21:13:11.206Z,74.05
2018-02-07T21:15:37.491Z,74.57
2018-02-07T21:18:03.798Z,67.53
2018-02-07T21:20:30.100Z,62.55
2018-02-07T21:22:57.160Z,58.95
2018-02-07T21:25:24.193Z,70.80
2018-02-07T21:27:51.483Z,69.12
2018-02-07T21:30:17.804Z,62.42
2018-02-07T21:32:44.081Z,57.90
2018-02-07T21:35:10.359Z,68.70
2018-02-07T21:37:37.403Z,74.95
2018-02-07T21:40:04.438Z,65.93
2018-02-07T21:42:31.497Z,59.00
2018-02-07T21:44:58.560Z,66.82
2018-02-07T21:47:24.850Z,65.22
2018-02-07T21:49:51.155Z,70.90
2018-02-07T21:52:17.475Z,64.75
2018-02-07T21:54:43.791Z,71.18
2018-02-07T21:57:10.074Z,65.80
2018-02-07T21:59:36.358Z,99.65
2018-02-07T22:02:02.661Z,84.20
2018-02-07T22:04:28.959Z,63.75
2018-02-07T22:06:55.276Z,103.35
2018-02-07T22:09:21.554Z,83.72
2018-02-07T22:11:47.822Z,71.22
2018-02-07T22:14:14.138Z,75.07
2018-02-07T22:16:40.407Z,81.15
2018-02-07T22:19:07.466Z,83.40
2018-02-07T22:21:34.494Z,67.07
2018-02-07T22:24:04.270Z,118.97
2018-02-07T22:26:30.579Z,79.57
2018-02-07T22:28:56.863Z,65.93
2018-02-07T22:31:23.154Z,72.00
2018-02-07T22:33:49.443Z,63.85
2018-02-07T22:36:15.846Z,80.03
2018-02-07T22:38:42.127Z,74.75
2018-02-07T22:41:09.178Z,78.57
2018-02-07T22:43:36.231Z,79.15
2018-02-07T22:46:02.568Z,57.80
2018-02-07T22:48:29.613Z,69.12
2018-02-07T22:50:55.894Z,75.18
2018-02-07T22:53:22.219Z,66.10
2018-02-07T22:55:48.531Z,74.40
2018-02-07T22:58:15.562Z,85.95
2018-02-07T23:00:42.602Z,70.53
2018-02-07T23:03:08.927Z,78.93
2018-02-07T23:05:35.212Z,70.97
2018-02-07T23:08:01.514Z,66.80
2018-02-07T23:10:28.559Z,79.72
2018-02-07T23:12:55.587Z,70.82
2018-02-07T23:15:22.629Z,59.45
2018-02-07T23:17:48.925Z,67.97
2018-02-07T23:20:15.230Z,69.32
2018-02-07T23:22:44.046Z,74.87
2018-02-07T23:25:15.223Z,69.15
2018-02-07T23:27:41.507Z,74.20
2018-02-07T23:30:07.814Z,73.45
2018-02-07T23:32:34.849Z,72.60
2018-02-07T23:35:02.195Z,77.50
2018-02-07T23:37:28.518Z,67.72
2018-02-07T23:39:54.802Z,75.65
2018-02-07T23:42:21.079Z,86.50
2018-02-07T23:44:47.362Z,87.43
2018-02-07T23:47:13.651Z,78.15
2018-02-07T23:49:39.986Z,78.12
2018-02-07T23:52:06.255Z,70.28
2018-02-07T23:54:32.529Z,73.25
2018-02-07T23:56:58.835Z,73.40
2018-02-07T23:59:25.130Z,71.18
